Time;durP1;ratioP1;P1;durP2;ratioP2;P2;SDS_P1;SDS_P2;PMS_P1;PMS_P2;Temp;Humidity;BMP_temperature;BMP_pressure;BME280_temperature;BME280_humidity;BME280_pressure;Samples;Min_cycle;Max_cycle;Signal;HPM_P1;HPM_P2
2023/10/01 00:00:43;;;;;;;;;39.50;33.75;;;;;17.44;58.31;99843.22;4947325;28;8865;-78
2023/10/01 00:03:31;;;;;;;;;40.50;34.25;;;;;17.57;57.88;99841.72;4943499;28;8859;-78
2023/10/01 00:06:00;;;;;;;;;39.75;34.75;;;;;17.63;57.86;99838.81;4970192;28;9003;-78
2023/10/01 00:08:29;;;;;;;;;38.50;33.25;;;;;17.41;58.47;99836.25;4972433;28;8867;-77
2023/10/01 00:10:59;;;;;;;;;33.00;32.00;;;;;17.40;58.69;99839.88;4977233;28;8855;-77
2023/10/01 00:13:27;;;;;;;;;35.00;31.25;;;;;17.65;57.89;99833.44;4985372;28;8871;-77
2023/10/01 00:15:59;;;;;;;;;40.00;34.25;;;;;17.75;57.48;99838.22;4974192;28;9777;-77
2023/10/01 00:18:29;;;;;;;;;43.00;36.50;;;;;17.80;57.16;99832.72;4993918;28;8878;-77
2023/10/01 00:20:59;;;;;;;;;40.00;34.50;;;;;17.76;57.47;99834.66;4992610;28;8844;-78
2023/10/01 00:23:27;;;;;;;;;34.25;31.50;;;;;17.53;58.52;99833.06;4975471;28;8990;-78
2023/10/01 00:25:57;;;;;;;;;32.50;30.75;;;;;17.51;58.80;99826.06;4975916;28;8890;-79
2023/10/01 00:28:26;;;;;;;;;35.00;31.50;;;;;17.77;57.71;99825.72;4942873;28;8852;-78
2023/10/01 00:30:57;;;;;;;;;37.00;33.25;;;;;17.29;59.52;99834.16;4976151;28;8855;-78
2023/10/01 00:33:27;;;;;;;;;38.50;33.25;;;;;17.17;60.00;99841.69;4977511;28;8881;-79
2023/10/01 00:35:59;;;;;;;;;38.00;34.00;;;;;16.82;61.54;99834.38;4993692;28;8891;-80
2023/10/01 00:38:30;;;;;;;;;28.00;25.75;;;;;16.82;61.79;99837.03;4980450;28;8918;-76
2023/10/01 00:40:59;;;;;;;;;35.00;32.25;;;;;16.49;63.26;99835.69;4997628;28;9630;-77
2023/10/01 00:43:54;;;;;;;;;39.25;35.00;;;;;15.99;65.22;99841.22;4992459;28;9015;-77
2023/10/01 00:46:23;;;;;;;;;38.50;33.25;;;;;15.76;66.33;99837.66;5004087;28;8881;-78
2023/10/01 00:48:55;;;;;;;;;40.25;32.75;;;;;15.76;66.37;99834.16;4997861;28;8872;-76
2023/10/01 00:51:25;;;;;;;;;33.25;30.25;;;;;15.43;67.76;99831.78;5007273;28;8868;-77
2023/10/01 00:53:57;;;;;;;;;40.00;31.25;;;;;15.48;67.70;99826.34;4993639;28;8865;-76
2023/10/01 00:56:26;;;;;;;;;37.25;32.25;;;;;15.53;67.43;99840.25;4976416;28;8873;-77
2023/10/01 00:58:55;;;;;;;;;41.75;34.75;;;;;15.43;68.24;99837.09;4977929;28;8889;-75
2023/10/01 01:01:26;;;;;;;;;37.25;33.00;;;;;15.29;68.86;99828.78;5012288;28;8850;-79
2023/10/01 01:03:57;;;;;;;;;37.50;33.00;;;;;15.27;69.18;99830.63;4980276;28;8870;-77
2023/10/01 01:06:33;;;;;;;;;40.25;33.00;;;;;15.09;69.86;99832.13;4989126;28;8866;-78
2023/10/01 01:09:02;;;;;;;;;41.75;32.00;;;;;15.09;69.97;99837.44;4976516;28;8973;-78
2023/10/01 01:11:31;;;;;;;;;40.75;35.25;;;;;15.16;69.70;99844.25;4972626;28;8992;-77
2023/10/01 01:14:01;;;;;;;;;42.00;33.00;;;;;15.38;68.78;99845.22;4926154;28;8875;-77
2023/10/01 01:16:30;;;;;;;;;36.00;29.50;;;;;15.29;69.26;99839.38;4979132;28;8893;-77
2023/10/01 01:19:01;;;;;;;;;43.50;34.50;;;;;15.17;69.67;99838.91;4993924;28;8864;-76
2023/10/01 01:21:32;;;;;;;;;38.50;31.75;;;;;15.10;69.97;99839.16;4992740;28;8836;-77
2023/10/01 01:24:03;;;;;;;;;37.00;32.75;;;;;14.99;70.61;99844.81;4945242;29;8979;-77
2023/10/01 01:26:33;;;;;;;;;34.00;30.25;;;;;15.08;70.34;99844.50;4932683;29;8991;-79
2023/10/01 01:29:16;;;;;;;;;37.75;33.00;;;;;15.11;70.09;99844.38;4869579;29;8881;-76
2023/10/01 01:31:46;;;;;;;;;39.25;32.75;;;;;15.15;69.83;99843.38;4932817;28;8899;-77
2023/10/01 01:34:15;;;;;;;;;40.50;33.00;;;;;15.12;69.94;99838.19;4934626;28;8889;-76
2023/10/01 01:36:45;;;;;;;;;38.00;33.25;;;;;15.13;69.88;99839.94;4925851;29;9339;-76
2023/10/01 01:39:27;;;;;;;;;30.50;29.50;;;;;15.22;69.80;99844.88;4931944;29;8886;-76
2023/10/01 01:41:57;;;;;;;;;36.25;33.00;;;;;15.16;70.02;99836.28;4935241;28;8890;-77
2023/10/01 01:44:26;;;;;;;;;41.00;32.50;;;;;15.33;69.18;99836.56;4954367;28;8870;-76
2023/10/01 01:47:00;;;;;;;;;35.50;30.75;;;;;15.22;69.53;99838.72;4919241;28;9639;-77
2023/10/01 01:49:30;;;;;;;;;34.50;32.25;;;;;15.45;68.77;99832.59;4931945;28;8879;-77
2023/10/01 01:52:03;;;;;;;;;37.25;32.00;;;;;15.33;69.30;99833.03;4953588;28;8889;-77
2023/10/01 01:54:37;;;;;;;;;39.00;32.50;;;;;15.24;69.63;99831.59;4935488;28;8901;-77
2023/10/01 01:57:13;;;;;;;;;35.25;32.50;;;;;15.34;69.14;99835.66;4934026;28;8878;-77
2023/10/01 01:59:43;;;;;;;;;32.25;30.75;;;;;15.67;67.73;99835.34;4933831;28;8870;-79
2023/10/01 02:02:14;;;;;;;;;37.50;31.75;;;;;15.80;66.99;99833.97;4965786;28;9015;-77
2023/10/01 02:07:33;;;;;;;;;40.50;33.75;;;;;15.56;67.98;99837.50;4972972;28;8867;-76
2023/10/01 02:10:06;;;;;;;;;38.75;33.75;;;;;15.57;67.46;99839.25;4971185;28;8852;-76
2023/10/01 02:12:38;;;;;;;;;37.50;32.75;;;;;15.41;68.29;99837.13;4984863;28;8855;-77
2023/10/01 02:15:08;;;;;;;;;41.25;33.00;;;;;15.33;68.78;99833.03;4991950;28;8895;-76
2023/10/01 02:17:39;;;;;;;;;34.25;32.00;;;;;15.29;68.89;99836.72;4973183;28;9653;-78
2023/10/01 02:20:27;;;;;;;;;38.50;33.25;;;;;15.38;68.68;99837.25;4970260;28;8854;-80
2023/10/01 02:23:02;;;;;;;;;42.75;35.25;;;;;15.24;69.31;99840.41;4973270;28;8879;-77
2023/10/01 02:25:38;;;;;;;;;37.50;33.75;;;;;15.16;69.66;99838.94;4970265;28;9642;-77
2023/10/01 02:28:11;;;;;;;;;40.50;34.50;;;;;14.94;70.84;99849.41;4972027;28;8847;-77
2023/10/01 02:30:41;;;;;;;;;40.25;33.75;;;;;14.87;70.94;99840.81;4971241;28;8871;-77
2023/10/01 02:33:16;;;;;;;;;47.50;38.00;;;;;15.03;70.26;99849.94;4972033;28;8844;-78
2023/10/01 02:35:48;;;;;;;;;36.00;32.00;;;;;15.22;69.38;99849.31;4969385;28;8875;-75
2023/10/01 02:41:08;;;;;;;;;39.50;34.25;;;;;15.83;66.81;99851.53;4971278;28;8867;-76
2023/10/01 02:43:41;;;;;;;;;36.25;32.50;;;;;15.71;67.18;99854.66;4954950;28;8848;-76
2023/10/01 02:46:12;;;;;;;;;37.75;32.25;;;;;15.47;68.24;99851.94;4971441;28;8863;-76
2023/10/01 02:48:42;;;;;;;;;39.75;35.00;;;;;15.50;68.04;99848.34;4971898;28;8855;-77
2023/10/01 02:51:32;;;;;;;;;34.75;32.50;;;;;15.58;67.79;99851.56;4975985;28;8867;-76
2023/10/01 02:54:05;;;;;;;;;35.00;31.25;;;;;15.39;68.43;99848.72;4977008;28;8871;-78
2023/10/01 02:56:52;;;;;;;;;35.50;31.25;;;;;15.62;67.75;99850.53;4990341;28;8879;-78
2023/10/01 02:59:20;;;;;;;;;40.75;34.25;;;;;15.39;68.16;99856.66;4962856;28;8894;-77
2023/10/01 03:01:49;;;;;;;;;33.00;30.00;;;;;15.44;67.67;99852.06;4942196;28;8871;-78
2023/10/01 03:04:17;;;;;;;;;36.75;32.50;;;;;15.59;67.44;99853.31;4969554;28;8941;-76
2023/10/01 03:06:52;;;;;;;;;37.00;32.50;;;;;15.53;67.42;99854.38;4969378;28;8969;-77
2023/10/01 03:09:31;;;;;;;;;38.25;33.75;;;;;15.78;66.29;99851.72;4970393;28;9630;-78
2023/10/01 03:12:34;;;;;;;;;41.50;35.25;;;;;15.61;66.75;99844.41;4969227;28;9629;-78
2023/10/01 03:15:23;;;;;;;;;36.25;31.75;;;;;15.76;66.18;99848.25;4970944;28;8937;-77
2023/10/01 03:18:06;;;;;;;;;36.00;30.50;;;;;15.78;65.87;99850.84;4953187;28;9017;-77
2023/10/01 03:23:26;;;;;;;;;36.25;32.50;;;;;16.11;64.63;99850.47;4970546;28;8974;-77
2023/10/01 03:25:57;;;;;;;;;56.00;45.25;;;;;16.43;63.36;99849.19;4975462;28;8859;-78
2023/10/01 03:28:34;;;;;;;;;34.50;29.25;;;;;16.53;62.98;99849.72;4952007;28;8886;-78
2023/10/01 03:31:08;;;;;;;;;35.50;32.75;;;;;16.43;63.15;99855.34;4974036;28;8977;-78
2023/10/01 03:33:38;;;;;;;;;39.75;32.00;;;;;16.47;62.99;99849.97;4968979;28;8964;-78
2023/10/01 03:36:10;;;;;;;;;36.50;32.50;;;;;16.75;62.06;99862.97;4967698;28;8870;-77
2023/10/01 03:38:42;;;;;;;;;40.20;32.00;;;;;16.82;61.74;99855.63;4967471;28;8868;-77
2023/10/01 03:41:20;;;;;;;;;32.00;30.00;;;;;16.89;61.27;99850.00;4968737;28;8844;-77
2023/10/01 03:43:55;;;;;;;;;28.50;27.50;;;;;16.89;61.46;99857.06;4948395;28;8890;-76
2023/10/01 03:46:26;;;;;;;;;41.00;35.00;;;;;16.38;63.08;99857.34;4962713;28;8885;-76
2023/10/01 03:48:59;;;;;;;;;24.20;24.20;;;;;16.51;62.51;99851.56;4986614;28;8871;-77
2023/10/01 03:54:19;;;;;;;;;31.80;28.40;;;;;16.03;64.12;99858.72;4955127;28;8860;-78
2023/10/01 03:56:56;;;;;;;;;31.80;28.80;;;;;16.05;64.23;99862.19;4951288;28;8961;-79
2023/10/01 03:59:28;;;;;;;;;27.80;26.00;;;;;15.96;64.88;99858.13;4983698;28;8887;-78
2023/10/01 04:02:00;;;;;;;;;32.40;29.00;;;;;16.06;64.42;99858.63;4938824;28;8853;-77
2023/10/01 04:04:32;;;;;;;;;43.20;33.80;;;;;16.03;64.29;99864.88;4972440;28;8867;-77
2023/10/01 04:07:10;;;;;;;;;42.50;35.50;;;;;15.93;64.53;99874.13;4969933;28;8871;-78
2023/10/01 04:09:46;;;;;;;;;32.00;30.20;;;;;15.59;66.04;99879.78;4966675;28;8860;-77
2023/10/01 04:12:32;;;;;;;;;29.40;27.40;;;;;15.63;65.92;99876.13;4968070;28;8867;-77
2023/10/01 04:15:04;;;;;;;;;29.80;27.80;;;;;15.71;65.74;99873.22;4970529;28;8893;-75
2023/10/01 04:17:36;;;;;;;;;31.40;29.40;;;;;15.82;65.11;99878.97;4967228;28;8863;-77
2023/10/01 04:20:12;;;;;;;;;36.50;31.50;;;;;15.54;66.22;99874.66;4937158;28;8901;-77
2023/10/01 04:22:40;;;;;;;;;32.00;29.20;;;;;15.65;65.87;99874.28;4969696;28;8886;-77
2023/10/01 04:25:11;;;;;;;;;28.60;27.20;;;;;15.70;65.66;99872.34;4970131;28;8856;-76
2023/10/01 04:27:45;;;;;;;;;32.80;30.80;;;;;15.57;66.08;99876.34;4954141;28;8918;-77
2023/10/01 04:30:16;;;;;;;;;30.80;30.20;;;;;15.34;67.13;99877.13;4969777;28;8867;-78
2023/10/01 04:32:46;;;;;;;;;33.00;30.20;;;;;15.64;65.99;99873.44;4970606;28;8871;-78
2023/10/01 04:35:15;;;;;;;;;33.75;30.00;;;;;15.52;66.30;99881.78;4970408;28;8875;-76
2023/10/01 04:37:51;;;;;;;;;31.40;28.60;;;;;15.43;67.05;99880.34;4976097;28;8875;-78
2023/10/01 04:40:39;;;;;;;;;30.00;28.00;;;;;15.74;65.95;99881.06;4987153;28;8879;-77
2023/10/01 04:43:10;;;;;;;;;31.50;29.75;;;;;15.54;66.72;99879.94;4976257;28;8981;-77
2023/10/01 04:45:41;;;;;;;;;24.00;22.20;;;;;15.38;67.11;99882.28;4968705;28;8887;-76
2023/10/01 04:48:15;;;;;;;;;33.40;30.80;;;;;15.57;66.42;99890.44;4970093;28;8848;-78
2023/10/01 04:50:46;;;;;;;;;29.50;25.50;;;;;15.55;66.34;99900.25;4969665;28;8887;-78
2023/10/01 04:53:15;;;;;;;;;31.20;29.00;;;;;15.78;65.47;99898.56;4969087;28;8895;-77
2023/10/01 04:55:44;;;;;;;;;33.25;30.75;;;;;15.75;65.62;99901.31;4986828;28;8897;-76
2023/10/01 04:58:14;;;;;;;;;28.40;28.00;;;;;15.83;65.21;99904.53;4973627;28;8875;-77
2023/10/01 05:00:45;;;;;;;;;55.00;45.25;;;;;15.70;65.97;99914.75;4973466;28;9557;-77
2023/10/01 05:03:15;;;;;;;;;39.50;33.75;;;;;15.63;66.03;99922.03;4972251;28;8867;-77
2023/10/01 05:05:48;;;;;;;;;34.20;29.40;;;;;15.44;66.99;99921.81;4989750;28;8884;-79
2023/10/01 05:08:17;;;;;;;;;31.20;29.00;;;;;14.84;69.62;99929.13;4989679;28;8876;-76
2023/10/01 05:10:51;;;;;;;;;29.20;27.60;;;;;14.60;71.03;99936.06;4990182;28;8888;-79
2023/10/01 05:13:22;;;;;;;;;31.60;28.80;;;;;14.58;71.01;99934.34;4989845;28;8943;-79
2023/10/01 05:15:56;;;;;;;;;33.20;30.20;;;;;14.51;71.35;99944.25;4990047;28;8996;-77
2023/10/01 05:18:27;;;;;;;;;35.50;32.75;;;;;14.18;73.28;99948.78;4961080;28;8905;-76
2023/10/01 05:20:59;;;;;;;;;32.60;30.80;;;;;14.07;73.79;99941.16;4990898;28;8888;-77
2023/10/01 05:23:29;;;;;;;;;33.20;31.40;;;;;13.94;74.34;99950.34;4959085;28;8861;-79
2023/10/01 05:25:59;;;;;;;;;32.40;30.40;;;;;13.79;75.48;99960.44;4974976;28;8853;-78
2023/10/01 05:28:36;;;;;;;;;31.40;29.20;;;;;13.72;75.93;99960.66;4954220;28;8845;-77
2023/10/01 05:31:12;;;;;;;;;36.50;31.75;;;;;13.70;76.11;99958.03;4993227;28;8877;-77
2023/10/01 05:33:45;;;;;;;;;36.40;31.00;;;;;13.61;76.44;99955.63;4990435;28;8899;-77
2023/10/01 05:36:16;;;;;;;;;30.60;28.40;;;;;13.37;77.65;99965.06;4984884;28;8916;-78
2023/10/01 05:38:46;;;;;;;;;42.75;34.25;;;;;13.42;77.82;99964.03;4972358;28;8893;-78
2023/10/01 05:41:15;;;;;;;;;33.50;32.25;;;;;13.16;78.57;99966.47;4973035;28;8910;-78
2023/10/01 05:43:50;;;;;;;;;31.75;29.75;;;;;13.12;79.34;99966.56;4972538;28;8898;-78
2023/10/01 05:46:22;;;;;;;;;39.25;34.75;;;;;13.23;78.82;99971.56;4972234;28;8879;-78
2023/10/01 05:48:55;;;;;;;;;43.25;35.75;;;;;13.16;79.73;99974.41;4972439;28;8885;-78
2023/10/01 05:51:42;;;;;;;;;37.75;33.25;;;;;13.19;79.27;99977.84;4971992;28;8863;-77
2023/10/01 05:54:12;;;;;;;;;39.50;33.50;;;;;13.01;79.93;99988.84;4961366;28;8845;-80
2023/10/01 05:56:47;;;;;;;;;34.25;30.50;;;;;12.86;81.01;99985.69;4988250;28;8869;-78
2023/10/01 05:59:20;;;;;;;;;35.50;33.75;;;;;12.98;80.36;99996.84;4957892;28;8868;-78
2023/10/01 06:01:50;;;;;;;;;38.75;34.75;;;;;13.04;80.37;99999.34;4969354;28;8884;-78
2023/10/01 06:04:20;;;;;;;;;37.50;34.00;;;;;13.16;79.57;100006.94;4953259;28;8878;-77
2023/10/01 06:06:50;;;;;;;;;41.50;37.00;;;;;13.09;79.83;99998.31;4977188;28;8864;-78
2023/10/01 06:09:23;;;;;;;;;38.75;34.75;;;;;13.28;79.17;99984.66;4991226;28;8873;-77
2023/10/01 06:12:03;;;;;;;;;46.50;35.50;;;;;13.17;79.60;99999.91;4985416;28;9013;-77
2023/10/01 06:14:39;;;;;;;;;36.00;31.50;;;;;13.28;78.93;99992.59;4989603;28;9638;-79
2023/10/01 06:17:10;;;;;;;;;39.25;35.25;;;;;13.30;78.79;99994.28;4988586;28;8872;-78
2023/10/01 06:19:41;;;;;;;;;38.50;34.00;;;;;13.28;78.93;99992.59;4988065;28;8872;-79
2023/10/01 06:22:22;;;;;;;;;40.25;34.50;;;;;13.28;79.08;99993.44;4960063;28;9622;-77
2023/10/01 06:24:52;;;;;;;;;42.75;36.50;;;;;13.29;78.38;99999.59;4937086;28;8875;-77
2023/10/01 06:27:25;;;;;;;;;41.75;35.75;;;;;13.01;79.93;100007.31;4956837;28;8897;-78
2023/10/01 06:29:56;;;;;;;;;40.00;35.33;;;;;13.08;80.13;100015.03;4993239;28;8938;-76
2023/10/01 06:32:27;;;;;;;;;42.75;36.75;;;;;13.15;79.99;100013.13;4992119;28;8856;-75
2023/10/01 06:34:57;;;;;;;;;41.25;36.00;;;;;13.34;78.72;100012.69;4960682;28;8875;-77
2023/10/01 06:37:45;;;;;;;;;39.00;35.50;;;;;13.29;78.83;100007.50;4959884;28;9059;-78
2023/10/01 06:42:59;;;;;;;;;44.75;36.25;;;;;13.26;79.14;100019.03;4970597;28;8879;-79
2023/10/01 06:45:44;;;;;;;;;45.25;37.75;;;;;13.18;80.07;100022.75;4946363;28;8879;-80
2023/10/01 06:48:15;;;;;;;;;43.00;37.00;;;;;13.33;79.29;100026.78;4968308;28;8942;-77
2023/10/01 06:50:46;;;;;;;;;39.25;33.00;;;;;13.40;78.70;100028.38;4969593;28;8878;-75
2023/10/01 06:53:15;;;;;;;;;37.50;34.00;;;;;13.46;78.08;100028.22;4971084;28;8918;-77
2023/10/01 06:55:47;;;;;;;;;45.00;37.75;;;;;13.35;79.35;100032.91;4970951;28;8860;-75
2023/10/01 06:58:16;;;;;;;;;33.50;31.50;;;;;13.35;78.87;100035.53;4937578;28;8868;-76
2023/10/01 07:00:45;;;;;;;;;37.50;34.25;;;;;13.41;78.93;100032.72;4969696;28;8840;-76
2023/10/01 07:03:19;;;;;;;;;42.75;35.75;;;;;13.51;78.46;100031.63;4971577;28;9041;-79
2023/10/01 07:05:51;;;;;;;;;42.25;37.75;;;;;13.55;78.04;100028.00;4979759;28;8855;-79
2023/10/01 07:08:32;;;;;;;;;39.75;33.00;;;;;13.65;77.79;100028.63;4971377;28;8913;-78
2023/10/01 07:11:13;;;;;;;;;38.75;35.75;;;;;13.55;78.25;100033.28;4971646;28;9625;-81
2023/10/01 07:13:42;;;;;;;;;40.25;36.00;;;;;13.54;79.05;100033.31;4942406;28;9001;-78
2023/10/01 07:16:17;;;;;;;;;38.25;34.25;;;;;13.47;78.94;100041.38;4952422;28;8844;-79
2023/10/01 07:18:49;;;;;;;;;39.75;35.25;;;;;13.41;78.69;100043.28;4970105;28;8950;-79
2023/10/01 07:21:41;;;;;;;;;42.50;38.00;;;;;13.61;78.28;100050.75;4960937;28;8865;-78
2023/10/01 07:24:11;;;;;;;;;37.50;34.00;;;;;13.67;78.14;100053.22;4990778;28;8885;-80
2023/10/01 07:26:41;;;;;;;;;43.75;36.75;;;;;13.49;78.83;100057.19;4937962;28;9592;-78
2023/10/01 07:29:13;;;;;;;;;40.75;36.25;;;;;13.38;79.50;100057.47;4951980;28;8865;-78
2023/10/01 07:31:43;;;;;;;;;44.50;38.50;;;;;13.64;78.52;100063.88;4968160;28;8876;-77
2023/10/01 07:34:13;;;;;;;;;41.00;36.25;;;;;13.75;78.12;100061.84;4966841;28;8873;-79
2023/10/01 07:36:43;;;;;;;;;41.75;37.25;;;;;13.88;77.12;100060.63;4967060;28;8849;-77
2023/10/01 07:39:13;;;;;;;;;44.25;37.00;;;;;13.89;77.10;100066.78;4952870;28;8922;-78
2023/10/01 07:41:44;;;;;;;;;42.25;36.00;;;;;13.79;77.73;100074.06;4969501;28;8863;-80
2023/10/01 07:44:14;;;;;;;;;42.00;37.50;;;;;13.69;78.38;100073.41;4969665;28;8883;-78
2023/10/01 07:46:43;;;;;;;;;41.50;35.75;;;;;13.66;78.71;100072.63;4920308;28;8930;-79
2023/10/01 07:49:18;;;;;;;;;42.00;36.75;;;;;13.80;77.88;100074.91;4969964;28;8894;-78
2023/10/01 07:51:50;;;;;;;;;38.50;33.75;;;;;13.82;77.95;100079.28;4967425;28;8891;-77
2023/10/01 07:54:22;;;;;;;;;36.75;33.50;;;;;13.89;77.83;100078.22;4969910;28;8867;-77
2023/10/01 07:56:56;;;;;;;;;36.50;34.00;;;;;13.95;77.49;100082.47;4969288;28;8883;-79
2023/10/01 07:59:33;;;;;;;;;40.25;35.75;;;;;14.17;76.21;100079.22;4950791;28;8891;-78
2023/10/01 08:02:13;;;;;;;;;39.75;33.75;;;;;14.39;75.04;100082.16;4969774;28;8867;-76
2023/10/01 08:04:57;;;;;;;;;47.25;37.50;;;;;14.24;75.76;100094.03;4969912;28;8978;-76
2023/10/01 08:07:39;;;;;;;;;40.75;35.00;;;;;14.15;76.58;100094.28;4968734;28;8868;-78
2023/10/01 08:10:18;;;;;;;;;36.25;33.50;;;;;14.30;75.60;100088.59;4954122;28;8868;-75
2023/10/01 08:13:06;;;;;;;;;35.75;33.00;;;;;14.15;76.21;100095.16;4956901;28;8906;-77
2023/10/01 08:15:57;;;;;;;;;39.75;34.00;;;;;14.25;75.63;100095.78;4987738;28;8894;-77
2023/10/01 08:18:35;;;;;;;;;35.25;32.50;;;;;14.25;75.91;100104.56;4961868;28;8879;-70
2023/10/01 08:21:15;;;;;;;;;36.25;33.75;;;;;14.29;75.82;100100.06;4969705;28;8898;-74
2023/10/01 08:23:48;;;;;;;;;32.00;27.50;;;;;14.19;76.46;100103.88;4967249;28;8906;-77
2023/10/01 08:29:27;;;;;;;;;37.00;33.25;;;;;13.87;77.03;100103.81;4910835;29;8873;-78
2023/10/01 08:32:08;;;;;;;;;39.00;34.00;;;;;14.05;76.16;100112.16;4866579;29;9011;-80
2023/10/01 08:37:31;;;;;;;;;37.25;33.50;;;;;14.06;76.36;100112.13;4909986;29;9697;-79
2023/10/01 08:40:01;;;;;;;;;35.00;33.00;;;;;14.42;75.21;100106.75;4904326;29;8883;-78
2023/10/01 08:42:30;;;;;;;;;38.00;34.00;;;;;14.24;75.59;100118.72;4912857;29;8876;-80
2023/10/01 08:45:03;;;;;;;;;47.25;38.50;;;;;14.38;75.10;100117.47;4897363;29;9653;-81
2023/10/01 08:47:35;;;;;;;;;39.50;33.50;;;;;14.23;75.35;100121.41;4912647;29;8967;-79
2023/10/01 08:50:26;;;;;;;;;36.25;31.00;;;;;14.26;75.57;100118.66;4917990;29;8874;-78
2023/10/01 08:53:01;;;;;;;;;41.25;35.50;;;;;14.55;74.65;100111.72;4919057;29;8909;-78
2023/10/01 08:55:39;;;;;;;;;34.75;32.50;;;;;15.00;71.97;100121.88;4903726;29;8865;-80
2023/10/01 08:58:25;;;;;;;;;38.25;34.25;;;;;14.59;73.37;100122.16;4884015;29;9053;-78
2023/10/01 09:01:11;;;;;;;;;37.25;34.00;;;;;15.17;70.95;100114.31;4971506;28;8930;-78
2023/10/01 09:03:47;;;;;;;;;34.75;33.25;;;;;15.33;70.33;100112.03;4986292;28;8893;-79
2023/10/01 09:06:25;;;;;;;;;32.50;31.50;;;;;15.81;68.07;100110.50;4910158;28;8871;-79
2023/10/01 09:09:19;;;;;;;;;39.25;35.00;;;;;15.42;69.58;100116.19;4962165;28;8902;-84
2023/10/01 09:11:50;;;;;;;;;35.75;32.75;;;;;15.66;68.04;100114.53;4970814;28;8937;-80
2023/10/01 09:14:39;;;;;;;;;30.75;30.25;;;;;15.58;68.84;100117.41;4967631;28;9008;-81
2023/10/01 09:17:26;;;;;;;;;37.50;34.25;;;;;15.52;68.73;100114.94;4938105;28;8921;-80
2023/10/01 09:20:06;;;;;;;;;38.25;32.25;;;;;15.71;67.49;100112.59;4970505;28;8879;-78
2023/10/01 09:22:42;;;;;;;;;39.75;34.50;;;;;16.01;66.36;100117.78;4970553;28;8997;-78
2023/10/01 09:25:20;;;;;;;;;35.25;32.75;;;;;16.10;65.98;100114.81;4970768;28;8868;-76
2023/10/01 09:27:59;;;;;;;;;33.00;31.50;;;;;16.39;64.63;100113.78;4970671;28;8888;-76
2023/10/01 09:30:31;;;;;;;;;39.75;35.50;;;;;15.76;66.63;100117.75;4979038;28;8844;-78
2023/10/01 09:33:05;;;;;;;;;43.25;36.25;;;;;15.96;65.50;100115.31;5010918;28;8927;-76
2023/10/01 09:35:42;;;;;;;;;41.50;35.25;;;;;15.95;66.16;100118.00;4960015;28;8872;-77
2023/10/01 09:38:12;;;;;;;;;47.25;39.50;;;;;15.91;66.23;100111.94;4969833;28;8886;-77
2023/10/01 09:40:44;;;;;;;;;38.00;32.75;;;;;16.36;64.53;100123.63;4977439;28;8969;-77
2023/10/01 09:43:24;;;;;;;;;41.25;36.50;;;;;15.85;66.70;100128.06;4973380;28;8867;-79
2023/10/01 09:45:57;;;;;;;;;39.25;34.75;;;;;15.79;66.49;100128.25;4973201;28;8898;-76
2023/10/01 09:48:30;;;;;;;;;38.50;35.00;;;;;15.37;68.20;100126.03;4972198;28;8862;-75
2023/10/01 09:51:13;;;;;;;;;37.50;33.75;;;;;15.60;66.80;100125.34;4971536;28;8883;-78
2023/10/01 09:53:48;;;;;;;;;44.25;38.00;;;;;16.12;65.25;100114.78;4972146;28;8864;-76
2023/10/01 09:56:27;;;;;;;;;39.75;35.75;;;;;16.36;64.40;100120.97;4939172;28;8867;-77
2023/10/01 09:59:01;;;;;;;;;40.50;34.75;;;;;16.52;63.47;100113.38;4971976;28;8859;-76
2023/10/01 10:01:32;;;;;;;;;36.00;33.00;;;;;16.58;63.63;100115.78;4972329;28;9660;-79
2023/10/01 10:04:03;;;;;;;;;37.50;34.25;;;;;16.72;63.20;100121.47;4970981;28;8902;-76
2023/10/01 10:06:35;;;;;;;;;35.00;31.75;;;;;17.12;61.33;100111.97;4972197;28;8856;-77
2023/10/01 10:09:09;;;;;;;;;36.75;33.50;;;;;17.43;60.09;100120.56;4972179;28;8889;-78
2023/10/01 10:11:45;;;;;;;;;38.75;33.50;;;;;17.72;59.10;100127.31;4971936;28;9011;-75
2023/10/01 10:14:45;;;;;;;;;39.25;34.75;;;;;17.93;58.26;100121.13;4971688;28;8839;-79
2023/10/01 10:17:25;;;;;;;;;38.00;33.50;;;;;18.06;57.45;100126.81;4970776;28;8863;-75
2023/10/01 10:20:15;;;;;;;;;35.00;32.25;;;;;17.29;59.05;100127.28;4970652;28;8888;-79
2023/10/01 10:23:16;;;;;;;;;34.75;31.75;;;;;17.27;59.55;100130.91;4981623;28;9034;-78
2023/10/01 10:25:46;;;;;;;;;34.25;30.50;;;;;17.25;59.93;100138.97;4988359;28;8894;-78
2023/10/01 10:28:25;;;;;;;;;37.50;34.25;;;;;17.89;57.80;100132.81;4971951;28;8890;-75
2023/10/01 10:31:30;;;;;;;;;39.00;32.25;;;;;18.39;56.71;100120.09;4971349;28;8892;-78
2023/10/01 10:34:24;;;;;;;;;39.25;34.50;;;;;18.03;56.99;100123.41;4929852;29;8876;-77
2023/10/01 10:36:55;;;;;;;;;34.75;32.25;;;;;17.25;59.54;100131.00;4913043;29;9611;-76
2023/10/01 10:40:22;;;;;;;;;41.75;35.75;;;;;17.81;57.86;100120.78;4882222;29;8876;-76
2023/10/01 10:43:18;;;;;;;;;30.75;30.50;;;;;18.21;56.06;100119.09;4857231;29;9032;-79
2023/10/01 10:46:08;;;;;;;;;42.00;36.25;;;;;18.32;56.31;100112.34;4781070;29;8928;-78
2023/10/01 10:48:59;;;;;;;;;41.00;34.50;;;;;18.01;56.50;100109.31;4781852;29;8854;-80
2023/10/01 10:51:52;;;;;;;;;39.50;33.75;;;;;18.14;56.26;100108.72;4739456;29;8978;-76
2023/10/01 10:54:29;;;;;;;;;68.00;55.50;;;;;18.65;55.04;100111.78;4772732;29;8890;-81
2023/10/01 10:56:59;;;;;;;;;39.25;35.75;;;;;18.31;55.75;100105.31;4781813;29;8886;-76
2023/10/01 10:59:31;;;;;;;;;40.00;36.00;;;;;18.06;56.93;100092.25;4781004;29;8905;-76
2023/10/01 11:02:02;;;;;;;;;36.50;33.50;;;;;18.57;56.05;100084.63;4766109;29;8986;-75
2023/10/01 11:04:31;;;;;;;;;40.75;36.75;;;;;18.54;55.27;100095.44;4763089;30;8888;-74
2023/10/01 11:07:04;;;;;;;;;33.00;31.75;;;;;18.53;55.00;100097.25;4761252;29;9012;-75
2023/10/01 11:09:34;;;;;;;;;37.00;33.75;;;;;18.82;54.40;100099.50;4771181;29;8864;-76
2023/10/01 11:12:07;;;;;;;;;39.25;34.25;;;;;18.72;54.65;100086.63;4838739;29;8890;-73
2023/10/01 11:14:39;;;;;;;;;29.25;28.50;;;;;18.31;55.42;100097.34;4805714;29;8893;-73
2023/10/01 11:17:13;;;;;;;;;32.33;31.67;;;;;18.04;55.64;100090.56;4838594;29;9039;-76
2023/10/01 11:19:47;;;;;;;;;42.50;34.00;;;;;17.84;56.72;100086.09;4894247;29;8887;-80
2023/10/01 11:22:22;;;;;;;;;31.75;30.50;;;;;17.90;56.60;100088.47;4893733;28;8879;-82
2023/10/01 11:24:55;;;;;;;;;34.00;33.00;;;;;18.19;55.80;100094.34;4968963;28;8926;-80
2023/10/01 11:27:40;;;;;;;;;37.20;33.20;;;;;18.05;56.21;100094.97;4951654;28;8887;-80
2023/10/01 11:30:15;;;;;;;;;25.80;25.40;;;;;18.03;54.05;100095.03;4987889;28;8876;-80
2023/10/01 11:32:59;;;;;;;;;26.20;25.80;;;;;18.22;53.77;100092.41;4987880;28;8877;-81
2023/10/01 11:35:33;;;;;;;;;25.60;24.60;;;;;17.94;53.75;100085.59;4987316;28;8938;-74
2023/10/01 11:38:14;;;;;;;;;24.60;24.40;;;;;18.07;53.47;100091.28;4969801;28;9689;-74
2023/10/01 11:43:38;;;;;;;;;27.60;25.00;;;;;18.30;52.37;100095.59;4966216;28;8909;-75
2023/10/01 11:46:21;;;;;;;;;29.20;27.60;;;;;18.46;52.46;100092.25;4967323;28;8863;-72
2023/10/01 11:48:59;;;;;;;;;23.60;23.00;;;;;18.20;52.17;100096.09;4951015;28;9609;-72
2023/10/01 11:51:31;;;;;;;;;32.00;30.25;;;;;18.31;52.45;100086.69;4966404;28;9613;-72
2023/10/01 11:54:09;;;;;;;;;22.80;21.40;;;;;18.44;51.21;100091.44;4966798;28;8942;-74
2023/10/01 11:56:40;;;;;;;;;26.00;24.00;;;;;18.67;50.30;100087.75;4967093;28;8871;-72
2023/10/01 11:59:17;;;;;;;;;22.00;20.40;;;;;18.46;50.94;100086.91;4970760;28;8879;-74
2023/10/01 12:01:49;;;;;;;;;20.00;20.00;;;;;18.42;51.37;100075.56;4959672;28;8992;-76
2023/10/01 12:07:15;;;;;;;;;17.40;15.60;;;;;18.37;49.99;100074.06;4946189;29;8875;-78
2023/10/01 12:09:48;;;;;;;;;22.40;21.40;;;;;18.47;49.81;100068.22;4927756;29;8895;-79
2023/10/01 12:12:18;;;;;;;;;23.40;21.60;;;;;18.77;48.91;100067.75;4915802;29;9715;-76
2023/10/01 12:14:56;;;;;;;;;19.40;18.60;;;;;19.26;48.08;100064.56;4909678;29;8946;-78
2023/10/01 12:17:27;;;;;;;;;21.60;20.40;;;;;19.39;46.65;100063.03;4894107;29;8942;-76
2023/10/01 12:20:00;;;;;;;;;17.60;16.20;;;;;19.48;46.09;100067.03;4910312;29;8879;-77
2023/10/01 12:22:31;;;;;;;;;18.80;17.20;;;;;19.22;45.40;100060.34;4909719;29;9090;-78